Time;durP1;ratioP1;P1;durP2;ratioP2;P2;SDS_P1;SDS_P2;PMS_P1;PMS_P2;Temp;Humidity;BMP_temperature;BMP_pressure;BME280_temperature;BME280_humidity;BME280_pressure;Samples;Min_cycle;Max_cycle;Signal;HPM_P1;HPM_P2
2021/12/20 00:02:02;;;;;;;20.52;11.05;;;1.90;99.90;;;;;;5123848;28;20032;-83
2021/12/20 00:04:27;;;;;;;18.88;10.55;;;2.00;99.90;;;;;;5089519;28;20418;-83
2021/12/20 00:06:56;;;;;;;20.35;9.80;;;2.00;99.90;;;;;;5105015;28;20101;-81
2021/12/20 00:09:21;;;;;;;19.33;11.18;;;2.00;99.90;;;;;;5104668;28;20024;-83
2021/12/20 00:11:50;;;;;;;17.42;10.73;;;2.00;99.90;;;;;;5089472;28;20060;-81
2021/12/20 00:14:15;;;;;;;19.70;11.27;;;2.00;99.90;;;;;;5103285;28;20058;-81
2021/12/20 00:16:45;;;;;;;16.75;9.15;;;2.00;99.90;;;;;;5084672;28;20020;-81
2021/12/20 00:19:10;;;;;;;19.13;10.00;;;2.00;99.90;;;;;;5101671;28;20024;-82
2021/12/20 00:21:37;;;;;;;18.02;9.50;;;2.00;99.90;;;;;;5102338;28;20066;-82
2021/12/20 00:24:04;;;;;;;17.55;10.32;;;2.00;99.90;;;;;;5106361;28;20031;-81
2021/12/20 00:26:29;;;;;;;17.83;10.45;;;2.00;99.90;;;;;;5102553;28;20056;-81
2021/12/20 00:28:55;;;;;;;17.73;9.63;;;2.00;99.90;;;;;;5107427;28;20051;-81
2021/12/20 00:31:21;;;;;;;19.70;10.02;;;2.00;99.90;;;;;;5118297;28;20023;-83
2021/12/20 00:33:47;;;;;;;17.70;9.68;;;2.00;99.90;;;;;;5123883;28;20043;-83
2021/12/20 00:36:21;;;;;;;16.42;9.75;;;2.10;99.90;;;;;;5124149;28;20165;-83
2021/12/20 00:41:39;;;;;;;18.77;10.60;;;2.10;99.90;;;;;;5069835;28;20032;-81
2021/12/20 00:44:05;;;;;;;17.75;11.00;;;2.10;99.90;;;;;;5084813;28;20096;-82
2021/12/20 00:46:31;;;;;;;17.20;9.57;;;2.20;99.90;;;;;;5102826;28;20020;-82
2021/12/20 00:48:57;;;;;;;18.75;10.70;;;2.10;99.90;;;;;;5104062;28;20067;-83
2021/12/20 00:51:23;;;;;;;18.42;10.70;;;2.10;99.90;;;;;;5089313;28;20032;-83
2021/12/20 00:53:48;;;;;;;17.10;10.40;;;2.10;99.90;;;;;;5086529;28;20111;-83
2021/12/20 00:56:14;;;;;;;17.98;9.55;;;2.10;99.90;;;;;;5103063;28;20111;-83
2021/12/20 00:58:43;;;;;;;22.15;11.55;;;2.10;99.90;;;;;;5102644;28;20016;-83
2021/12/20 01:01:10;;;;;;;20.25;11.23;;;2.10;99.90;;;;;;5104934;28;20028;-83
2021/12/20 01:03:36;;;;;;;18.40;10.48;;;2.10;99.90;;;;;;5123331;28;20030;-82
2021/12/20 01:06:03;;;;;;;17.13;10.23;;;2.10;99.90;;;;;;5123403;28;20436;-83
2021/12/20 01:08:33;;;;;;;19.70;11.07;;;2.10;99.90;;;;;;5123143;28;20099;-83
2021/12/20 01:11:00;;;;;;;16.27;9.68;;;2.10;99.90;;;;;;5119729;28;20024;-82
2021/12/20 01:13:29;;;;;;;21.02;10.82;;;2.10;99.90;;;;;;5129637;27;20015;-81
2021/12/20 01:15:58;;;;;;;18.45;9.95;;;2.10;99.90;;;;;;5134771;28;20075;-81
2021/12/20 01:18:23;;;;;;;19.58;10.63;;;2.10;99.90;;;;;;5116578;27;20047;-80
2021/12/20 01:20:50;;;;;;;18.05;10.27;;;2.20;99.90;;;;;;5133907;28;20031;-80
2021/12/20 01:23:20;;;;;;;17.65;9.93;;;2.20;99.90;;;;;;5133930;28;20023;-80
2021/12/20 01:25:47;;;;;;;17.73;10.88;;;2.20;99.90;;;;;;5115997;28;20280;-81
2021/12/20 01:28:13;;;;;;;20.10;11.43;;;2.20;99.90;;;;;;5135197;28;20027;-80
2021/12/20 01:30:40;;;;;;;16.70;9.95;;;2.20;99.90;;;;;;5134769;28;20028;-80
2021/12/20 01:33:12;;;;;;;17.25;10.07;;;2.20;99.90;;;;;;5105760;28;20084;-79
2021/12/20 01:35:50;;;;;;;16.80;9.38;;;2.20;99.90;;;;;;5096674;28;20037;-80
2021/12/20 01:38:16;;;;;;;17.25;9.57;;;2.20;99.90;;;;;;5114556;28;20020;-80
2021/12/20 01:40:42;;;;;;;19.13;10.73;;;2.30;99.90;;;;;;5113523;28;20072;-82
2021/12/20 01:43:10;;;;;;;17.70;9.63;;;2.30;99.90;;;;;;5094572;28;20047;-82
2021/12/20 01:45:39;;;;;;;20.98;11.50;;;2.20;99.90;;;;;;5083128;28;20081;-84
2021/12/20 01:48:09;;;;;;;20.52;11.30;;;2.20;99.90;;;;;;5093756;28;20016;-80
2021/12/20 01:50:52;;;;;;;17.05;10.18;;;2.30;99.90;;;;;;5079115;28;20036;-80
2021/12/20 01:53:20;;;;;;;;;;;2.20;99.90;;;;;;5103914;28;20008;-80
2021/12/20 01:55:50;;;;;;;18.95;10.35;;;2.20;99.90;;;;;;5109082;28;19915;-81
2021/12/20 01:58:16;;;;;;;16.83;9.50;;;2.20;99.90;;;;;;5088410;28;20020;-83
2021/12/20 02:03:28;;;;;;;20.27;11.25;;;2.20;99.90;;;;;;5109089;28;20049;-80
2021/12/20 02:05:57;;;;;;;19.90;11.00;;;2.30;99.90;;;;;;5126296;28;20409;-82
2021/12/20 02:08:26;;;;;;;20.65;11.07;;;2.30;99.90;;;;;;5106040;28;20015;-83
2021/12/20 02:10:57;;;;;;;18.30;9.85;;;2.30;99.90;;;;;;5124065;28;20437;-82
2021/12/20 02:13:31;;;;;;;19.03;9.93;;;2.20;99.90;;;;;;5104331;28;20051;-83
2021/12/20 02:16:06;;;;;;;16.67;9.43;;;2.30;99.90;;;;;;5103939;28;20305;-82
2021/12/20 02:18:38;;;;;;;15.98;9.18;;;2.30;99.90;;;;;;5084583;28;20020;-83
2021/12/20 02:21:10;;;;;;;16.10;9.32;;;2.30;99.90;;;;;;5086052;28;20047;-83
2021/12/20 02:23:40;;;;;;;18.50;10.38;;;2.30;99.90;;;;;;5085279;28;20038;-82
2021/12/20 02:26:17;;;;;;;;;;;;;;;;;;;;;
2021/12/20 02:28:53;;;;;;;19.00;10.68;;;2.30;99.90;;;;;;5083278;28;20104;-83
2021/12/20 02:39:40;;;;;;;16.38;9.07;;;2.30;99.90;;;;;;5103972;28;20016;-82
2021/12/20 02:42:06;;;;;;;20.13;10.55;;;2.30;99.90;;;;;;5085338;28;20044;-80
2021/12/20 02:44:46;;;;;;;20.60;10.77;;;2.30;99.90;;;;;;5102811;28;20028;-81
2021/12/20 02:47:26;;;;;;;17.33;9.80;;;2.30;99.90;;;;;;5103836;28;20132;-81
2021/12/20 02:49:52;;;;;;;17.95;10.02;;;2.30;99.90;;;;;;5084272;28;20031;-82
2021/12/20 02:52:18;;;;;;;21.25;10.38;;;2.30;99.90;;;;;;5102108;28;20020;-82
2021/12/20 02:54:44;;;;;;;18.38;10.20;;;2.20;99.90;;;;;;5101868;28;20032;-83
2021/12/20 02:57:15;;;;;;;18.25;9.25;;;2.30;99.90;;;;;;5102099;28;20024;-82
2021/12/20 02:59:52;;;;;;;17.67;10.13;;;2.30;99.90;;;;;;5102206;28;20063;-83
2021/12/20 03:02:23;;;;;;;15.77;9.48;;;2.30;99.90;;;;;;5084163;28;20035;-83
2021/12/20 03:04:55;;;;;;;19.77;10.05;;;2.30;99.90;;;;;;5104163;28;20031;-83
2021/12/20 03:07:26;;;;;;;16.90;9.32;;;2.40;99.90;;;;;;5102209;28;20016;-83
2021/12/20 03:10:02;;;;;;;18.13;9.43;;;2.40;99.90;;;;;;5102206;28;20024;-83
2021/12/20 03:12:32;;;;;;;18.55;10.25;;;2.40;99.90;;;;;;5101454;28;20380;-82
2021/12/20 03:15:12;;;;;;;17.40;9.82;;;2.40;99.90;;;;;;5102066;28;20024;-81
2021/12/20 03:17:38;;;;;;;15.73;9.23;;;2.40;99.90;;;;;;5083758;28;20024;-81
2021/12/20 03:20:05;;;;;;;17.35;10.15;;;2.40;99.90;;;;;;5105714;28;20021;-81
2021/12/20 03:22:33;;;;;;;17.77;10.13;;;2.40;99.90;;;;;;5111836;28;20028;-81
2021/12/20 03:25:07;;;;;;;23.38;11.73;;;2.30;99.90;;;;;;5117693;28;20042;-82
2021/12/20 03:27:33;;;;;;;22.08;11.45;;;2.30;99.90;;;;;;5121446;27;20039;-82
2021/12/20 03:30:08;;;;;;;18.65;9.85;;;2.30;99.90;;;;;;5125029;28;20026;-82
2021/12/20 03:32:34;;;;;;;16.65;9.27;;;2.20;99.90;;;;;;5126314;28;20008;-82
2021/12/20 03:35:35;;;;;;;23.95;11.15;;;2.20;99.90;;;;;;5123402;28;20095;-82
2021/12/20 03:38:04;;;;;;;17.90;10.05;;;2.20;99.90;;;;;;5086552;28;20384;-82
2021/12/20 03:40:42;;;;;;;17.17;9.63;;;2.20;99.90;;;;;;5105476;28;20028;-82
2021/12/20 03:43:23;;;;;;;;;;;;;;;;;;;;;
2021/12/20 03:46:12;;;;;;;18.73;9.02;;;2.20;99.90;;;;;;5106385;28;20051;-82
2021/12/20 03:48:38;;;;;;;22.75;11.15;;;2.10;99.90;;;;;;5090892;28;20037;-82
2021/12/20 03:51:15;;;;;;;19.77;10.95;;;2.10;99.90;;;;;;5085842;28;20108;-82
2021/12/20 03:53:44;;;;;;;21.80;10.90;;;2.10;99.90;;;;;;5085226;28;20478;-82
2021/12/20 03:56:18;;;;;;;17.10;9.43;;;2.10;99.90;;;;;;5094671;28;20035;-82
2021/12/20 03:58:46;;;;;;;18.08;10.18;;;2.10;99.90;;;;;;5127042;28;20031;-81
2021/12/20 04:01:16;;;;;;;19.08;9.65;;;2.10;99.90;;;;;;5126542;27;20023;-82
2021/12/20 04:03:43;;;;;;;20.30;10.57;;;2.20;99.90;;;;;;5125579;28;20028;-82
2021/12/20 04:06:15;;;;;;;19.08;10.07;;;2.20;99.90;;;;;;5124249;28;20090;-81
2021/12/20 04:08:42;;;;;;;;;;;2.20;99.90;;;;;;5125677;28;20049;-82
2021/12/20 04:11:08;;;;;;;19.67;10.57;;;2.20;99.90;;;;;;5119812;28;19908;-82
2021/12/20 04:13:34;;;;;;;20.75;10.57;;;2.20;99.90;;;;;;5085505;28;20080;-82
2021/12/20 04:16:03;;;;;;;20.00;10.38;;;2.20;99.90;;;;;;5087745;28;20047;-82
2021/12/20 04:18:37;;;;;;;18.20;10.13;;;2.20;99.90;;;;;;5105079;28;20080;-82
2021/12/20 04:21:03;;;;;;;22.50;10.77;;;2.20;99.90;;;;;;5099141;28;20082;-83
2021/12/20 04:23:29;;;;;;;18.58;10.18;;;2.20;99.90;;;;;;5086023;28;20035;-81
2021/12/20 04:25:55;;;;;;;20.90;10.18;;;2.30;99.90;;;;;;5105197;28;20080;-81
2021/12/20 04:28:21;;;;;;;18.55;10.50;;;2.30;99.90;;;;;;5121001;27;20032;-81
2021/12/20 04:30:47;;;;;;;18.27;9.60;;;2.30;99.90;;;;;;5125038;28;20041;-82
2021/12/20 04:33:13;;;;;;;19.92;10.48;;;2.30;99.90;;;;;;5125583;28;20032;-81
2021/12/20 04:35:39;;;;;;;19.42;10.38;;;2.30;99.90;;;;;;5106974;28;20036;-82
2021/12/20 04:38:07;;;;;;;17.05;9.50;;;2.30;99.90;;;;;;5124067;28;20041;-81
2021/12/20 04:40:34;;;;;;;18.00;10.23;;;2.30;99.90;;;;;;5124192;28;20023;-82
2021/12/20 04:42:59;;;;;;;18.42;10.80;;;2.30;99.90;;;;;;5104633;28;20016;-81
2021/12/20 04:45:27;;;;;;;16.60;9.43;;;2.30;99.90;;;;;;5100380;28;20456;-78
2021/12/20 04:47:54;;;;;;;18.00;9.52;;;2.30;99.90;;;;;;5100130;28;20085;-77
2021/12/20 04:50:20;;;;;;;16.20;9.02;;;2.30;99.90;;;;;;5098853;28;20047;-77
2021/12/20 04:52:46;;;;;;;16.73;9.52;;;2.40;99.90;;;;;;5099246;28;20016;-79
2021/12/20 04:55:13;;;;;;;17.02;9.25;;;2.40;99.90;;;;;;5097953;28;20049;-78
2021/12/20 04:57:40;;;;;;;21.45;11.10;;;2.40;99.90;;;;;;5080744;28;20021;-78
2021/12/20 05:00:10;;;;;;;19.02;10.00;;;2.50;99.90;;;;;;5103496;28;20025;-77
2021/12/20 05:02:36;;;;;;;17.92;9.82;;;2.40;99.90;;;;;;5102614;28;20016;-77
2021/12/20 05:05:02;;;;;;;18.58;10.10;;;2.40;99.90;;;;;;5098111;28;20030;-78
2021/12/20 05:07:28;;;;;;;20.23;10.85;;;2.40;99.90;;;;;;5099113;28;20028;-78
2021/12/20 05:09:59;;;;;;;18.08;10.13;;;2.40;99.90;;;;;;5114767;28;20062;-77
2021/12/20 05:12:25;;;;;;;13.52;8.32;;;2.40;99.90;;;;;;5104475;28;20035;-79
2021/12/20 05:14:50;;;;;;;14.93;8.35;;;2.50;99.90;;;;;;5099785;28;20020;-79
2021/12/20 05:17:16;;;;;;;15.40;8.70;;;2.50;99.90;;;;;;5100659;28;20024;-78
2021/12/20 05:19:42;;;;;;;13.77;7.78;;;2.50;99.90;;;;;;5082093;28;20032;-79
2021/12/20 05:22:09;;;;;;;13.32;7.82;;;2.50;99.90;;;;;;5101552;28;20078;-77
2021/12/20 05:24:36;;;;;;;15.48;7.68;;;2.50;99.90;;;;;;5108172;28;20027;-78
2021/12/20 05:27:02;;;;;;;12.65;7.60;;;2.50;99.90;;;;;;5104973;28;20058;-76
2021/12/20 05:29:27;;;;;;;13.15;7.47;;;2.50;99.90;;;;;;5100274;28;20028;-77
2021/12/20 05:31:53;;;;;;;20.40;10.25;;;2.50;99.90;;;;;;5099549;28;20024;-78
2021/12/20 05:34:20;;;;;;;17.75;9.65;;;2.50;99.90;;;;;;5099185;28;20085;-78
2021/12/20 05:36:46;;;;;;;16.55;9.55;;;2.60;99.90;;;;;;5081351;28;20043;-78
2021/12/20 05:39:12;;;;;;;19.40;9.45;;;2.60;99.90;;;;;;5100723;28;20020;-78
2021/12/20 05:41:38;;;;;;;18.63;10.40;;;2.60;99.90;;;;;;5083178;28;20012;-78
2021/12/20 05:44:04;;;;;;;15.82;9.20;;;2.60;99.90;;;;;;5095591;28;20069;-78
2021/12/20 05:46:30;;;;;;;17.45;9.57;;;2.60;99.90;;;;;;5101652;28;20073;-80
2021/12/20 05:48:56;;;;;;;21.65;10.35;;;2.60;99.90;;;;;;5102272;28;20026;-82
2021/12/20 05:51:22;;;;;;;17.30;9.48;;;2.60;99.90;;;;;;5103260;28;20028;-81
2021/12/20 05:53:48;;;;;;;18.70;10.85;;;2.70;99.90;;;;;;5104311;28;20032;-81
2021/12/20 05:56:14;;;;;;;20.50;9.85;;;2.60;99.90;;;;;;5104912;28;20032;-82
2021/12/20 05:58:42;;;;;;;21.60;10.70;;;2.60;99.90;;;;;;5108142;28;20498;-81
2021/12/20 06:01:08;;;;;;;19.38;9.90;;;2.60;99.90;;;;;;5095086;28;20076;-81
2021/12/20 06:03:34;;;;;;;15.75;9.50;;;2.60;99.90;;;;;;5084271;28;20024;-82
2021/12/20 06:06:00;;;;;;;18.13;10.02;;;2.60;99.90;;;;;;5099682;28;20038;-84
2021/12/20 06:08:27;;;;;;;15.85;8.98;;;2.60;99.90;;;;;;5085665;28;20023;-85
2021/12/20 06:10:52;;;;;;;23.42;11.68;;;2.60;99.90;;;;;;5088838;28;20058;-85
2021/12/20 06:13:18;;;;;;;18.17;9.68;;;2.60;99.90;;;;;;5102913;28;20028;-84
2021/12/20 06:15:44;;;;;;;16.50;9.68;;;2.60;99.90;;;;;;5085033;28;20031;-84
2021/12/20 06:18:10;;;;;;;21.98;11.15;;;2.60;99.90;;;;;;5085110;28;20028;-84
2021/12/20 06:20:36;;;;;;;20.75;11.60;;;2.60;99.90;;;;;;5104342;28;20073;-83
2021/12/20 06:23:01;;;;;;;15.98;9.38;;;2.60;99.90;;;;;;5104042;28;20023;-83
2021/12/20 06:25:27;;;;;;;19.67;10.45;;;2.70;99.90;;;;;;5101638;28;20039;-82
2021/12/20 06:27:54;;;;;;;18.75;9.70;;;2.70;99.90;;;;;;5101761;28;20034;-81
2021/12/20 06:30:19;;;;;;;16.13;9.32;;;2.70;99.90;;;;;;5101661;28;20023;-80
2021/12/20 06:32:46;;;;;;;15.98;9.60;;;2.70;99.90;;;;;;5120389;28;20027;-83
2021/12/20 06:35:15;;;;;;;17.60;9.25;;;2.70;99.90;;;;;;5126513;28;20034;-80
2021/12/20 06:37:48;;;;;;;18.33;10.25;;;2.70;99.90;;;;;;5134839;27;20065;-83
2021/12/20 06:40:14;;;;;;;20.88;10.93;;;2.70;99.90;;;;;;5131164;28;20019;-82
2021/12/20 06:42:39;;;;;;;19.77;10.82;;;2.70;99.90;;;;;;5113136;28;20424;-82
2021/12/20 06:45:06;;;;;;;17.33;10.52;;;2.70;99.90;;;;;;5104437;28;20028;-83
2021/12/20 06:47:33;;;;;;;21.05;11.52;;;2.70;99.90;;;;;;5084815;28;20107;-83
2021/12/20 06:49:59;;;;;;;18.58;10.40;;;2.60;99.90;;;;;;5103092;28;20069;-83
2021/12/20 06:52:25;;;;;;;20.20;10.23;;;2.70;99.90;;;;;;5102510;28;20020;-83
2021/12/20 06:54:52;;;;;;;19.38;11.15;;;2.70;99.90;;;;;;5103212;28;20103;-85
2021/12/20 06:57:20;;;;;;;19.33;10.00;;;2.70;99.90;;;;;;5102855;28;20103;-84
2021/12/20 06:59:46;;;;;;;20.08;10.93;;;2.70;99.90;;;;;;5102239;28;20020;-85
2021/12/20 07:02:12;;;;;;;20.98;11.07;;;2.70;99.90;;;;;;5103701;28;20090;-83
2021/12/20 07:04:38;;;;;;;19.95;10.80;;;2.70;99.90;;;;;;5091742;28;20020;-83
2021/12/20 07:07:04;;;;;;;22.13;11.52;;;2.70;99.90;;;;;;5094936;28;20024;-84
2021/12/20 07:09:29;;;;;;;20.80;10.70;;;2.70;99.90;;;;;;5109232;28;20052;-83
2021/12/20 07:14:26;;;;;;;22.13;10.68;;;2.80;99.90;;;;;;5059178;28;20052;-81
2021/12/20 07:16:56;;;;;;;20.48;9.95;;;2.80;99.90;;;;;;5035662;28;20028;-79
2021/12/20 07:19:22;;;;;;;25.50;10.93;;;2.80;99.90;;;;;;5063779;28;20025;-82
2021/12/20 07:21:48;;;;;;;21.20;11.70;;;2.80;99.90;;;;;;5043666;28;20024;-81
2021/12/20 07:24:13;;;;;;;21.00;10.32;;;2.80;99.90;;;;;;5063261;28;20086;-81
2021/12/20 07:26:43;;;;;;;18.80;10.50;;;2.80;99.90;;;;;;5062396;28;20021;-81
2021/12/20 07:29:09;;;;;;;22.15;10.30;;;2.80;99.90;;;;;;5062717;28;20102;-81
2021/12/20 07:31:35;;;;;;;19.65;10.38;;;2.80;99.90;;;;;;5062925;28;20025;-81
2021/12/20 07:34:01;;;;;;;22.90;11.23;;;2.80;99.90;;;;;;5062567;28;20028;-81
2021/12/20 07:36:26;;;;;;;17.60;9.95;;;2.80;99.90;;;;;;5062571;28;20476;-81
2021/12/20 07:38:52;;;;;;;20.33;11.07;;;2.80;99.90;;;;;;5063271;28;20370;-81
2021/12/20 07:41:19;;;;;;;22.50;11.63;;;2.90;99.90;;;;;;5061798;28;20051;-81
2021/12/20 07:43:47;;;;;;;18.63;10.63;;;2.90;99.90;;;;;;5044136;28;20025;-81
2021/12/20 07:46:13;;;;;;;19.42;10.57;;;2.90;99.90;;;;;;5045374;28;20032;-80
2021/12/20 07:48:38;;;;;;;21.85;10.50;;;2.90;99.90;;;;;;5064018;28;20029;-79
2021/12/20 07:51:04;;;;;;;23.75;11.63;;;2.90;99.90;;;;;;5063983;28;20052;-81
2021/12/20 07:53:30;;;;;;;23.05;12.07;;;3.00;99.90;;;;;;5046141;28;20031;-82
2021/12/20 07:55:57;;;;;;;21.33;11.32;;;3.00;99.90;;;;;;5062388;28;20083;-79
2021/12/20 07:58:23;;;;;;;20.40;11.65;;;3.00;99.90;;;;;;5069508;28;20021;-79
2021/12/20 08:00:49;;;;;;;22.05;10.80;;;3.00;99.90;;;;;;5070875;28;20033;-80
2021/12/20 08:03:15;;;;;;;20.30;11.23;;;3.00;99.90;;;;;;5065215;28;20029;-81
2021/12/20 08:05:41;;;;;;;20.88;11.90;;;3.00;99.90;;;;;;5065147;28;20059;-79
2021/12/20 08:08:07;;;;;;;18.33;10.40;;;3.00;99.90;;;;;;5087751;28;20027;-82
2021/12/20 08:10:33;;;;;;;17.25;10.23;;;3.00;99.90;;;;;;5095510;28;20057;-82
2021/12/20 08:12:59;;;;;;;19.77;11.10;;;3.10;99.90;;;;;;5078167;28;20039;-78
2021/12/20 08:15:26;;;;;;;26.20;11.73;;;3.10;99.90;;;;;;5078033;28;20025;-81
2021/12/20 08:17:53;;;;;;;19.52;11.23;;;3.10;99.90;;;;;;5078021;28;20013;-80
2021/12/20 08:20:20;;;;;;;22.65;11.25;;;3.10;99.90;;;;;;5078073;28;20041;-81
2021/12/20 08:22:48;;;;;;;19.30;10.70;;;3.20;99.90;;;;;;5077522;28;20028;-81
2021/12/20 08:25:16;;;;;;;20.52;10.70;;;3.20;99.90;;;;;;5082814;28;20029;-81
2021/12/20 08:27:42;;;;;;;22.52;11.70;;;3.30;99.90;;;;;;5098031;28;20025;-81
2021/12/20 08:30:09;;;;;;;20.38;11.38;;;3.30;99.90;;;;;;5098682;28;20024;-80
2021/12/20 08:32:36;;;;;;;18.88;10.77;;;3.30;99.90;;;;;;5098506;28;20058;-81
2021/12/20 08:35:03;;;;;;;23.83;13.15;;;3.30;99.90;;;;;;5078670;28;20047;-81
2021/12/20 08:37:29;;;;;;;27.00;13.65;;;3.30;99.90;;;;;;5098429;28;20024;-81
2021/12/20 08:39:56;;;;;;;23.10;11.18;;;3.20;99.90;;;;;;5080673;28;20016;-81
2021/12/20 08:42:22;;;;;;;27.45;13.93;;;3.20;99.90;;;;;;5063442;28;20025;-81
2021/12/20 08:44:49;;;;;;;28.15;13.07;;;3.20;99.90;;;;;;5077663;28;20036;-81
2021/12/20 08:47:15;;;;;;;21.67;12.02;;;3.20;99.90;;;;;;5077832;28;20021;-80
2021/12/20 08:49:41;;;;;;;27.65;13.68;;;3.20;99.90;;;;;;5078045;28;20023;-81
2021/12/20 08:52:07;;;;;;;23.42;12.25;;;3.30;99.90;;;;;;5077630;28;20017;-80
2021/12/20 08:54:33;;;;;;;24.90;11.85;;;3.30;99.90;;;;;;5077829;28;20028;-81
2021/12/20 08:56:59;;;;;;;24.65;13.27;;;3.30;99.90;;;;;;5090149;28;20023;-81
2021/12/20 08:59:25;;;;;;;23.77;12.93;;;3.40;99.90;;;;;;5097208;28;20027;-80
2021/12/20 09:01:51;;;;;;;22.45;13.40;;;3.40;99.90;;;;;;5097490;28;20068;-80
2021/12/20 09:04:18;;;;;;;20.75;10.65;;;3.40;99.90;;;;;;5075080;28;20025;-81
2021/12/20 09:06:44;;;;;;;20.88;12.43;;;3.50;99.90;;;;;;5080029;28;20037;-81
2021/12/20 09:09:13;;;;;;;23.25;13.27;;;3.70;99.90;;;;;;5076003;28;20032;-81
2021/12/20 09:11:39;;;;;;;21.50;12.02;;;3.70;99.90;;;;;;5068934;28;20044;-81
2021/12/20 09:14:05;;;;;;;19.63;11.20;;;3.70;99.90;;;;;;5060138;28;20021;-81
2021/12/20 09:16:31;;;;;;;23.08;11.70;;;3.70;99.90;;;;;;5077539;28;20024;-81
2021/12/20 09:18:57;;;;;;;23.83;12.10;;;3.70;99.90;;;;;;5077375;28;20043;-81
2021/12/20 09:21:23;;;;;;;20.60;11.05;;;3.70;99.90;;;;;;5076585;28;20013;-81
2021/12/20 09:23:49;;;;;;;19.83;10.30;;;3.70;99.90;;;;;;5077052;28;20037;-81
2021/12/20 09:26:16;;;;;;;22.55;12.20;;;3.80;99.90;;;;;;5056221;28;20039;-79
2021/12/20 09:28:42;;;;;;;23.67;12.48;;;3.80;99.90;;;;;;5080621;28;20100;-80
2021/12/20 09:31:09;;;;;;;20.55;10.98;;;3.90;99.90;;;;;;5071819;28;20025;-81
2021/12/20 09:33:35;;;;;;;20.45;10.38;;;3.90;99.90;;;;;;5064822;28;20075;-82
2021/12/20 09:36:02;;;;;;;17.83;9.43;;;4.00;99.90;;;;;;5065988;28;20021;-81
2021/12/20 09:38:31;;;;;;;19.45;10.43;;;4.00;99.90;;;;;;5045318;28;20040;-80
2021/12/20 09:43:52;;;;;;;19.35;10.45;;;4.10;99.90;;;;;;5063231;28;20021;-81
2021/12/20 09:46:21;;;;;;;15.98;9.35;;;4.20;99.90;;;;;;5062135;28;20052;-82
2021/12/20 09:48:49;;;;;;;24.98;12.52;;;4.20;99.90;;;;;;5062021;28;20028;-79
2021/12/20 09:51:16;;;;;;;21.05;12.35;;;4.30;99.90;;;;;;5047644;28;20105;-81
2021/12/20 09:53:44;;;;;;;21.48;12.30;;;4.30;99.90;;;;;;5045647;28;20032;-82
2021/12/20 09:56:11;;;;;;;21.20;12.50;;;4.20;99.90;;;;;;5061900;28;20028;-82
2021/12/20 09:58:39;;;;;;;21.58;12.30;;;4.20;99.90;;;;;;5062470;28;20058;-81
2021/12/20 10:01:07;;;;;;;26.52;12.52;;;4.20;99.90;;;;;;5044264;28;20032;-82
2021/12/20 10:03:34;;;;;;;22.48;11.82;;;4.20;99.90;;;;;;5071373;28;20021;-81
2021/12/20 10:06:00;;;;;;;25.50;12.65;;;4.20;99.90;;;;;;5069665;28;20049;-80
2021/12/20 10:08:33;;;;;;;23.40;11.48;;;4.20;99.90;;;;;;5068729;28;20389;-82
2021/12/20 10:11:29;;;;;;;24.20;12.68;;;4.20;99.90;;;;;;5067404;28;20372;-82
2021/12/20 10:14:16;;;;;;;24.30;11.40;;;4.30;99.90;;;;;;5059400;28;20032;-82
2021/12/20 10:16:44;;;;;;;22.83;11.25;;;4.30;99.70;;;;;;5061871;28;20048;-82
2021/12/20 10:19:31;;;;;;;22.98;12.27;;;4.40;99.90;;;;;;5067125;28;20025;-80
2021/12/20 10:21:58;;;;;;;18.63;11.10;;;4.40;99.60;;;;;;5043919;28;20021;-80
2021/12/20 10:24:30;;;;;;;22.00;11.30;;;4.40;99.70;;;;;;5060323;28;20489;-80
2021/12/20 10:26:56;;;;;;;21.13;10.38;;;4.40;99.10;;;;;;5060244;28;20025;-81
2021/12/20 10:29:22;;;;;;;18.00;9.90;;;4.30;99.40;;;;;;5052619;28;20032;-82
2021/12/20 10:31:50;;;;;;;21.27;12.77;;;4.20;99.90;;;;;;5070414;28;20351;-82
2021/12/20 10:34:18;;;;;;;23.42;11.20;;;4.20;99.90;;;;;;5047051;28;20100;-82
2021/12/20 10:36:55;;;;;;;25.30;11.95;;;4.30;99.70;;;;;;5065281;28;20021;-82
2021/12/20 10:39:41;;;;;;;21.23;11.15;;;4.30;99.60;;;;;;5049777;28;20250;-82
2021/12/20 10:42:28;;;;;;;24.38;13.23;;;4.30;99.70;;;;;;5063851;28;20013;-84
2021/12/20 10:45:15;;;;;;;27.30;12.35;;;4.30;99.50;;;;;;5046732;28;20021;-83
2021/12/20 10:47:42;;;;;;;23.55;11.63;;;4.40;99.30;;;;;;5061169;28;20025;-82
2021/12/20 10:50:23;;;;;;;18.50;10.63;;;4.40;99.00;;;;;;5069880;28;20021;-82
2021/12/20 10:52:50;;;;;;;21.58;11.43;;;4.30;99.30;;;;;;5045754;28;20021;-83
2021/12/20 10:55:54;;;;;;;25.92;12.95;;;4.40;99.60;;;;;;5042271;28;20482;-83
2021/12/20 10:58:28;;;;;;;18.67;10.50;;;4.20;99.60;;;;;;5043152;28;20384;-83
2021/12/20 11:01:04;;;;;;;20.95;11.85;;;4.20;99.90;;;;;;5068374;28;20031;-81
2021/12/20 11:03:36;;;;;;;22.10;11.32;;;4.10;99.90;;;;;;5062224;28;20017;-83
2021/12/20 11:09:08;;;;;;;20.67;10.40;;;4.20;99.70;;;;;;5060919;28;20365;-82
2021/12/20 11:11:39;;;;;;;20.00;11.07;;;4.20;99.70;;;;;;5037599;28;20033;-83
2021/12/20 11:14:06;;;;;;;21.77;11.43;;;4.30;99.60;;;;;;5041604;28;20036;-81
2021/12/20 11:16:40;;;;;;;21.30;11.20;;;4.20;99.40;;;;;;5059401;28;20020;-81
2021/12/20 11:19:35;;;;;;;24.42;11.32;;;4.10;99.90;;;;;;5042194;28;20104;-83
2021/12/20 11:22:05;;;;;;;19.05;10.13;;;4.10;99.50;;;;;;5062600;28;20037;-83
2021/12/20 11:24:36;;;;;;;19.25;9.85;;;4.20;99.50;;;;;;5042366;28;20465;-84
2021/12/20 11:27:05;;;;;;;18.38;9.48;;;4.20;99.30;;;;;;5062116;28;20013;-82
2021/12/20 11:29:32;;;;;;;21.60;10.93;;;4.20;99.30;;;;;;5045557;28;20088;-83
2021/12/20 11:32:00;;;;;;;18.95;11.15;;;4.20;99.00;;;;;;5054806;28;20039;-84
2021/12/20 11:34:26;;;;;;;16.70;10.00;;;4.20;98.90;;;;;;5049255;28;20017;-83
2021/12/20 11:36:53;;;;;;;17.77;9.23;;;4.10;99.00;;;;;;5058430;28;20021;-83
2021/12/20 11:39:19;;;;;;;16.52;9.95;;;4.10;99.10;;;;;;5060635;28;20477;-83
2021/12/20 11:41:45;;;;;;;17.70;9.77;;;4.10;99.70;;;;;;5060313;28;20025;-82
2021/12/20 11:44:15;;;;;;;18.23;9.55;;;4.20;98.80;;;;;;5042983;28;20017;-83
2021/12/20 11:47:01;;;;;;;16.13;9.35;;;4.20;98.80;;;;;;5061770;28;20049;-84
2021/12/20 11:49:28;;;;;;;17.27;9.80;;;4.20;98.70;;;;;;5060942;28;20017;-84
2021/12/20 11:52:15;;;;;;;17.65;9.57;;;4.20;98.70;;;;;;5062974;28;20029;-85
2021/12/20 11:54:47;;;;;;;16.00;9.23;;;4.30;98.70;;;;;;5046677;28;20053;-84
2021/12/20 11:57:28;;;;;;;16.10;8.05;;;4.30;98.60;;;;;;5067543;28;20017;-84
2021/12/20 11:59:55;;;;;;;17.73;9.35;;;4.30;98.00;;;;;;5065568;28;20025;-83
2021/12/20 12:02:22;;;;;;;12.50;7.75;;;4.30;98.10;;;;;;5067190;28;20493;-84
2021/12/20 12:04:57;;;;;;;14.13;8.20;;;4.20;98.10;;;;;;5065740;28;20021;-84
2021/12/20 12:07:29;;;;;;;15.93;8.23;;;4.20;98.30;;;;;;5058274;28;20028;-82
2021/12/20 12:10:03;;;;;;;15.70;8.77;;;4.10;97.90;;;;;;5053032;28;20076;-83
2021/12/20 12:12:30;;;;;;;15.43;8.23;;;4.10;97.80;;;;;;5065613;28;20051;-83
2021/12/20 12:15:02;;;;;;;16.25;8.20;;;4.00;97.80;;;;;;5065408;28;20025;-82
2021/12/20 12:17:47;;;;;;;;;;;4.00;98.00;;;;;;5066801;28;20054;-82
2021/12/20 12:20:13;;;;;;;20.13;9.27;;;3.90;98.00;;;;;;5066127;28;20179;-84
2021/12/20 12:22:43;;;;;;;15.45;8.98;;;3.80;98.10;;;;;;5049179;28;20040;-84
2021/12/20 12:25:36;;;;;;;16.50;8.90;;;3.70;98.10;;;;;;5047769;28;20021;-83
2021/12/20 12:28:01;;;;;;;;;;;3.70;98.40;;;;;;5043304;28;20107;-84
2021/12/20 12:30:30;;;;;;;15.30;7.93;;;3.70;98.60;;;;;;5065884;28;19967;-83
2021/12/20 12:32:56;;;;;;;16.00;7.03;;;3.60;98.50;;;;;;5067931;28;20028;-86
2021/12/20 12:35:37;;;;;;;13.80;7.30;;;3.50;98.50;;;;;;5070853;28;20021;-82
2021/12/20 12:38:19;;;;;;;12.25;6.70;;;3.40;98.70;;;;;;5066177;28;20083;-82
2021/12/20 12:40:49;;;;;;;12.35;7.00;;;3.40;98.90;;;;;;5047535;28;20021;-83
2021/12/20 12:43:17;;;;;;;17.08;8.10;;;3.30;98.80;;;;;;5046275;28;20132;-85
2021/12/20 12:45:53;;;;;;;17.77;8.02;;;3.30;98.40;;;;;;5064966;28;20021;-84
2021/12/20 12:48:47;;;;;;;13.88;7.32;;;3.30;98.10;;;;;;5048336;28;20032;-84
2021/12/20 12:51:18;;;;;;;13.38;6.50;;;3.30;98.10;;;;;;5064218;28;20090;-84
2021/12/20 12:53:48;;;;;;;14.48;7.00;;;3.30;98.20;;;;;;5067001;28;20098;-81
2021/12/20 12:56:23;;;;;;;11.30;6.53;;;3.30;98.10;;;;;;5065856;28;20047;-82
2021/12/20 12:59:19;;;;;;;11.90;5.63;;;3.40;97.90;;;;;;5049445;28;20097;-83
2021/12/20 13:01:49;;;;;;;12.60;6.43;;;3.40;97.50;;;;;;5022745;28;20059;-84
2021/12/20 13:04:15;;;;;;;13.40;6.95;;;3.50;97.50;;;;;;5047296;28;20084;-83
2021/12/20 13:06:43;;;;;;;12.02;6.35;;;3.60;97.00;;;;;;5068262;28;20025;-84
2021/12/20 13:09:08;;;;;;;14.50;6.10;;;3.80;96.60;;;;;;5049915;28;20424;-84
2021/12/20 13:11:34;;;;;;;10.63;5.70;;;4.00;95.30;;;;;;5069588;28;20032;-82
2021/12/20 13:14:11;;;;;;;16.13;6.53;;;4.20;95.00;;;;;;5084799;22;20105;-83
2021/12/20 13:16:42;;;;;;;16.15;5.93;;;4.50;94.10;;;;;;5051065;28;20045;-83